Time;durP1;ratioP1;P1;durP2;ratioP2;P2;SDS_P1;SDS_P2;PMS_P1;PMS_P2;Temp;Humidity;BMP_temperature;BMP_pressure;BME280_temperature;BME280_humidity;BME280_pressure;Samples;Min_cycle;Max_cycle;Signal;HPM_P1;HPM_P2
2022/05/19 00:00:21;;;;;;;3.85;2.38;;;;;;;15.01;89.06;98669.06;5052800;28;20036;-69
2022/05/19 00:02:47;;;;;;;3.25;2.38;;;;;;;14.95;89.79;98670.16;5059134;28;20025;-69
2022/05/19 00:05:12;;;;;;;5.03;2.50;;;;;;;14.92;90.37;98661.44;5044332;28;20029;-69
2022/05/19 00:07:37;;;;;;;5.00;2.65;;;;;;;14.92;91.20;98664.09;5054617;28;20089;-69
2022/05/19 00:10:03;;;;;;;3.55;2.47;;;;;;;15.12;91.38;98664.22;5063659;28;20020;-69
2022/05/19 00:12:30;;;;;;;4.93;2.95;;;;;;;15.15;89.46;98662.31;5063334;28;20024;-69
2022/05/19 00:14:57;;;;;;;4.65;2.78;;;;;;;15.22;90.15;98662.09;5063599;28;20025;-69
2022/05/19 00:17:23;;;;;;;5.25;3.20;;;;;;;15.21;89.68;98666.53;5062152;28;20025;-69
2022/05/19 00:19:49;;;;;;;3.88;2.35;;;;;;;15.22;90.24;98652.34;5045453;28;20029;-69
2022/05/19 00:22:14;;;;;;;4.15;2.53;;;;;;;15.27;90.67;98661.00;5044036;28;20028;-69
2022/05/19 00:24:40;;;;;;;4.45;2.85;;;;;;;15.33;89.97;98659.91;5044040;28;20092;-69
2022/05/19 00:27:05;;;;;;;6.03;2.60;;;;;;;15.32;89.85;98659.06;5054407;28;20029;-69
2022/05/19 00:29:31;;;;;;;4.45;3.03;;;;;;;15.40;90.22;98651.69;5063334;28;20126;-69
2022/05/19 00:31:56;;;;;;;4.32;2.78;;;;;;;15.46;90.07;98648.81;5063011;28;20021;-69
2022/05/19 00:34:21;;;;;;;3.92;2.88;;;;;;;15.53;89.67;98658.25;5052214;28;20017;-69
2022/05/19 00:36:47;;;;;;;3.88;2.55;;;;;;;15.53;88.91;98658.25;5051820;28;20025;-69
2022/05/19 00:39:13;;;;;;;4.40;2.63;;;;;;;15.51;88.95;98652.16;5063289;28;20020;-69
2022/05/19 00:41:43;;;;;;;6.45;3.10;;;;;;;15.52;89.18;98645.91;5063295;28;20023;-69
2022/05/19 00:44:08;;;;;;;6.95;3.53;;;;;;;15.65;88.88;98655.13;5061838;28;20029;-69
2022/05/19 00:46:50;;;;;;;3.67;2.58;;;;;;;15.56;88.18;98652.81;5063190;28;20191;-69
2022/05/19 00:49:23;;;;;;;8.38;3.38;;;;;;;15.41;88.66;98649.91;5054483;28;20041;-69
2022/05/19 00:52:01;;;;;;;3.42;2.55;;;;;;;15.38;89.69;98648.25;5062818;28;20096;-69
2022/05/19 00:54:38;;;;;;;3.95;2.58;;;;;;;15.14;88.69;98649.13;5063207;28;20086;-69
2022/05/19 00:57:23;;;;;;;6.80;2.40;;;;;;;15.07;88.96;98647.63;5059893;28;20229;-69
2022/05/19 00:59:52;;;;;;;4.53;2.60;;;;;;;14.63;90.28;98645.72;5043712;28;20048;-69
2022/05/19 01:02:21;;;;;;;4.43;2.72;;;;;;;14.66;91.77;98645.59;5043622;28;20041;-69
2022/05/19 01:04:53;;;;;;;3.88;2.42;;;;;;;14.70;92.01;98647.22;5044721;28;20029;-69
2022/05/19 01:07:27;;;;;;;5.15;2.72;;;;;;;14.73;91.60;98657.72;5048518;28;20013;-69
2022/05/19 01:09:56;;;;;;;4.40;2.95;;;;;;;14.61;92.35;98658.13;5065704;28;20025;-69
2022/05/19 01:12:22;;;;;;;4.63;2.88;;;;;;;14.42;91.30;98651.75;5066858;28;20025;-69
2022/05/19 01:14:47;;;;;;;3.17;2.38;;;;;;;14.46;91.69;98654.25;5066924;28;20031;-69
2022/05/19 01:17:13;;;;;;;5.20;3.15;;;;;;;14.25;91.61;98649.69;5066629;28;20037;-69
2022/05/19 01:19:44;;;;;;;4.82;2.55;;;;;;;14.27;92.22;98647.84;5053419;28;20097;-69
2022/05/19 01:22:19;;;;;;;4.68;3.08;;;;;;;14.18;91.80;98647.25;5047385;28;20029;-69
2022/05/19 01:24:58;;;;;;;4.63;2.13;;;;;;;14.14;91.91;98651.78;5047269;28;20032;-70
2022/05/19 01:27:24;;;;;;;4.55;2.90;;;;;;;14.13;92.64;98651.84;5047238;28;20025;-70
2022/05/19 01:29:49;;;;;;;7.78;2.83;;;;;;;14.18;93.65;98657.84;5061852;28;20036;-70
2022/05/19 01:32:25;;;;;;;3.65;2.60;;;;;;;14.03;94.20;98661.00;5053851;28;20222;-70
2022/05/19 01:34:51;;;;;;;4.03;2.25;;;;;;;13.90;94.38;98657.00;5048468;28;20087;-70
2022/05/19 01:37:17;;;;;;;4.85;2.60;;;;;;;14.04;94.89;98660.06;5047081;28;20311;-70
2022/05/19 01:39:46;;;;;;;3.10;2.53;;;;;;;14.03;94.47;98663.63;5047039;28;20089;-70
2022/05/19 01:42:22;;;;;;;6.28;3.10;;;;;;;14.00;93.42;98663.75;5054395;28;20021;-70
2022/05/19 01:44:53;;;;;;;7.15;3.08;;;;;;;13.87;94.81;98663.28;5053447;28;20363;-70
2022/05/19 01:47:38;;;;;;;5.75;2.80;;;;;;;13.86;95.35;98658.88;5046868;28;20029;-70
2022/05/19 01:50:22;;;;;;;5.78;2.72;;;;;;;13.91;94.90;98648.16;5060686;28;20044;-70
2022/05/19 01:52:59;;;;;;;4.93;2.90;;;;;;;13.84;95.47;98655.44;5066085;28;20024;-70
2022/05/19 01:55:43;;;;;;;3.53;2.45;;;;;;;13.83;95.76;98660.78;5058345;28;20068;-70
2022/05/19 01:58:16;;;;;;;5.85;3.00;;;;;;;13.84;94.41;98659.84;5058786;28;20059;-70
2022/05/19 02:00:43;;;;;;;5.65;2.55;;;;;;;13.70;94.06;98659.44;5065795;28;20035;-70
2022/05/19 02:03:23;;;;;;;4.75;3.03;;;;;;;13.62;95.72;98659.66;5053696;28;20017;-70
2022/05/19 02:05:57;;;;;;;7.57;3.15;;;;;;;13.62;95.76;98658.78;5047648;28;20096;-70
2022/05/19 02:08:48;;;;;;;5.78;3.08;;;;;;;13.67;95.83;98664.81;5046483;28;20032;-70
2022/05/19 02:11:29;;;;;;;6.53;2.80;;;;;;;13.47;95.61;98668.06;5057062;28;20115;-70
2022/05/19 02:13:57;;;;;;;5.13;3.10;;;;;;;13.44;95.96;98657.59;5065572;28;20025;-70
2022/05/19 02:16:24;;;;;;;3.88;2.70;;;;;;;13.40;96.61;98658.59;5046322;28;20316;-70
2022/05/19 02:18:50;;;;;;;4.53;3.05;;;;;;;13.27;97.16;98651.06;5048245;28;20029;-70
2022/05/19 02:21:17;;;;;;;4.35;2.85;;;;;;;13.28;97.80;98655.44;5065597;28;20043;-70
2022/05/19 02:23:43;;;;;;;4.18;3.00;;;;;;;13.29;97.79;98651.91;5065176;28;20324;-70
2022/05/19 02:26:09;;;;;;;4.03;2.65;;;;;;;13.25;96.71;98650.25;5046103;28;20067;-70
2022/05/19 02:28:43;;;;;;;4.68;2.85;;;;;;;13.31;96.35;98660.63;5046109;28;20344;-70
2022/05/19 02:31:09;;;;;;;5.15;3.13;;;;;;;13.41;96.40;98648.91;5046015;28;20380;-70
2022/05/19 02:33:34;;;;;;;4.07;2.65;;;;;;;13.43;96.91;98649.69;5046833;28;20028;-70
2022/05/19 02:36:01;;;;;;;6.07;2.97;;;;;;;13.31;96.15;98650.06;5065361;28;20055;-70
2022/05/19 02:38:27;;;;;;;6.15;3.05;;;;;;;13.25;96.17;98656.41;5065077;28;20024;-70
2022/05/19 02:40:52;;;;;;;3.70;2.85;;;;;;;13.15;95.71;98648.78;5065283;28;20035;-70
2022/05/19 02:43:19;;;;;;;4.25;2.75;;;;;;;12.94;96.15;98639.66;5065277;28;20021;-70
2022/05/19 02:45:45;;;;;;;5.15;3.25;;;;;;;13.00;98.02;98650.09;5046102;28;20324;-70
2022/05/19 02:48:12;;;;;;;4.68;2.85;;;;;;;13.13;97.99;98650.63;5045594;28;20210;-70
2022/05/19 02:50:39;;;;;;;8.15;3.80;;;;;;;12.91;96.10;98632.69;5062512;28;20313;-70
2022/05/19 02:53:06;;;;;;;5.15;2.90;;;;;;;12.92;97.63;98646.78;5052704;28;20021;-70
2022/05/19 02:55:31;;;;;;;4.95;3.20;;;;;;;13.07;98.00;98645.50;5062470;28;20036;-70
2022/05/19 02:57:57;;;;;;;5.13;3.13;;;;;;;13.02;97.83;98648.28;5064947;28;20267;-70
2022/05/19 03:00:24;;;;;;;4.15;2.70;;;;;;;13.06;97.36;98638.50;5058062;28;20021;-70
2022/05/19 03:02:50;;;;;;;7.10;3.50;;;;;;;12.97;97.38;98648.38;5045632;28;20340;-70
2022/05/19 03:05:22;;;;;;;6.20;3.42;;;;;;;12.98;97.42;98651.91;5056297;28;20025;-70
2022/05/19 03:07:47;;;;;;;6.35;3.28;;;;;;;12.88;97.71;98651.28;5045433;28;20029;-70
2022/05/19 03:10:13;;;;;;;5.53;3.33;;;;;;;12.73;97.99;98643.81;5045372;28;20363;-70
2022/05/19 03:12:39;;;;;;;7.88;3.97;;;;;;;12.79;98.79;98651.53;5045184;28;20032;-70
2022/05/19 03:15:05;;;;;;;4.38;3.03;;;;;;;12.90;99.23;98649.47;5045317;28;20025;-70
2022/05/19 03:17:30;;;;;;;6.15;3.35;;;;;;;12.79;97.36;98659.44;5045145;28;20036;-70
2022/05/19 03:19:56;;;;;;;3.97;2.55;;;;;;;12.74;96.99;98657.84;5051290;28;20328;-70
2022/05/19 03:22:24;;;;;;;5.07;3.25;;;;;;;12.62;96.13;98648.50;5053582;28;20217;-70
2022/05/19 03:24:50;;;;;;;4.38;3.05;;;;;;;12.62;98.12;98648.50;5045015;28;20029;-70
2022/05/19 03:27:16;;;;;;;8.27;4.28;;;;;;;12.68;99.18;98652.72;5046968;28;20104;-70
2022/05/19 03:29:41;;;;;;;6.13;3.03;;;;;;;12.75;99.48;98649.00;5064399;28;20217;-70
2022/05/19 03:32:07;;;;;;;5.53;3.30;;;;;;;12.84;99.38;98652.28;5063693;28;20339;-70
2022/05/19 03:34:33;;;;;;;8.73;3.53;;;;;;;12.79;98.82;98655.97;5061836;28;20027;-70
2022/05/19 03:37:02;;;;;;;4.63;3.15;;;;;;;12.75;98.59;98649.88;5044913;28;20035;-70
2022/05/19 03:39:28;;;;;;;4.95;3.03;;;;;;;12.74;98.05;98658.72;5045201;28;20032;-70
2022/05/19 03:41:53;;;;;;;4.80;3.35;;;;;;;12.76;97.88;98656.88;5051416;28;20025;-70
2022/05/19 03:44:19;;;;;;;4.70;3.47;;;;;;;12.63;97.93;98655.50;5044650;28;20029;-70
2022/05/19 03:46:44;;;;;;;7.10;2.95;;;;;;;12.72;97.96;98654.41;5053940;28;20056;-70
2022/05/19 03:49:11;;;;;;;4.97;3.03;;;;;;;12.67;98.60;98651.88;5063903;28;20078;-70
2022/05/19 03:51:37;;;;;;;3.35;2.53;;;;;;;12.72;98.08;98655.25;5049420;28;20088;-70
2022/05/19 03:54:03;;;;;;;7.15;2.83;;;;;;;12.61;98.13;98649.41;5044529;28;20391;-70
2022/05/19 03:56:28;;;;;;;5.05;3.30;;;;;;;12.68;97.92;98647.44;5044463;28;20029;-70
2022/05/19 03:58:54;;;;;;;4.63;2.88;;;;;;;12.60;97.47;98649.44;5044450;28;20032;-70
2022/05/19 04:01:20;;;;;;;4.68;3.08;;;;;;;12.61;97.96;98652.06;5044397;28;20085;-70
2022/05/19 04:03:46;;;;;;;8.68;3.55;;;;;;;12.58;98.03;98657.41;5045388;28;20025;-70
2022/05/19 04:06:13;;;;;;;7.05;3.28;;;;;;;12.55;98.67;98662.78;5053967;28;20055;-70
2022/05/19 04:08:38;;;;;;;3.70;2.85;;;;;;;12.66;99.22;98687.09;5063742;28;20020;-70
2022/05/19 04:11:04;;;;;;;7.82;3.63;;;;;;;12.74;98.93;98684.25;5055783;28;20029;-70
2022/05/19 04:13:30;;;;;;;9.98;3.17;;;;;;;12.85;98.98;98693.63;5044198;28;20396;-70
2022/05/19 04:15:56;;;;;;;4.47;3.35;;;;;;;12.96;98.09;98691.56;5044163;28;20028;-70
2022/05/19 04:18:21;;;;;;;4.53;3.10;;;;;;;12.97;97.80;98688.00;5044154;28;20029;-70
2022/05/19 04:20:47;;;;;;;6.68;3.40;;;;;;;13.16;97.83;98687.53;5044073;28;20081;-70
2022/05/19 04:23:13;;;;;;;6.78;3.53;;;;;;;12.77;96.54;98679.78;5058558;28;20036;-70
2022/05/19 04:25:39;;;;;;;6.20;3.78;;;;;;;12.93;98.19;98686.38;5062112;28;20024;-70
2022/05/19 04:28:06;;;;;;;5.93;3.88;;;;;;;12.96;98.96;98681.00;5044240;28;20089;-70
2022/05/19 04:30:32;;;;;;;6.22;3.72;;;;;;;13.27;99.40;98680.13;5043992;28;20029;-70
2022/05/19 04:32:57;;;;;;;9.77;3.83;;;;;;;13.46;98.12;98686.63;5046006;28;20052;-70
2022/05/19 04:35:23;;;;;;;6.35;3.30;;;;;;;13.63;96.80;98689.59;5059696;28;20363;-70
2022/05/19 04:37:49;;;;;;;4.90;3.35;;;;;;;13.78;95.37;98699.72;5059908;28;20063;-70
2022/05/19 04:40:16;;;;;;;4.93;3.22;;;;;;;13.93;95.08;98699.25;5052517;28;20300;-70
2022/05/19 04:42:42;;;;;;;3.90;2.88;;;;;;;14.10;94.54;98696.91;5043864;28;20071;-70
2022/05/19 04:45:10;;;;;;;3.47;2.92;;;;;;;14.18;93.78;98709.00;5047060;28;20033;-70
2022/05/19 04:47:35;;;;;;;4.28;3.20;;;;;;;14.45;93.81;98713.44;5048232;28;20052;-70
2022/05/19 04:50:01;;;;;;;5.85;2.83;;;;;;;14.66;93.40;98714.47;5047779;28;20329;-70
2022/05/19 04:52:26;;;;;;;5.45;2.70;;;;;;;14.99;91.45;98718.59;5048082;28;20045;-70
2022/05/19 04:54:52;;;;;;;4.80;3.22;;;;;;;15.21;91.00;98714.25;5047857;28;20348;-70
2022/05/19 04:57:17;;;;;;;3.70;3.03;;;;;;;15.42;89.47;98718.81;5047793;28;20063;-70
2022/05/19 04:59:43;;;;;;;4.10;3.00;;;;;;;15.74;88.51;98715.81;5047794;28;20307;-70
2022/05/19 05:02:10;;;;;;;8.02;3.40;;;;;;;15.96;88.76;98711.38;5047648;28;20021;-70
2022/05/19 05:04:36;;;;;;;9.10;2.88;;;;;;;16.16;87.80;98714.09;5047727;28;20084;-70
2022/05/19 05:07:02;;;;;;;4.68;3.25;;;;;;;16.39;86.56;98726.47;5047643;28;20033;-70
2022/05/19 05:09:28;;;;;;;7.20;3.10;;;;;;;16.53;85.20;98730.31;5047592;28;20031;-70
2022/05/19 05:11:53;;;;;;;9.50;3.53;;;;;;;16.63;85.35;98729.00;5047505;28;20088;-70
2022/05/19 05:14:19;;;;;;;6.80;2.83;;;;;;;16.94;84.84;98726.78;5047497;28;20029;-70
2022/05/19 05:16:52;;;;;;;5.72;2.60;;;;;;;17.13;83.55;98724.16;5047469;28;20091;-70
2022/05/19 05:19:22;;;;;;;3.03;2.38;;;;;;;17.23;82.97;98734.34;5047358;28;20032;-70
2022/05/19 05:21:49;;;;;;;3.58;2.78;;;;;;;17.68;83.04;98730.56;5047365;28;20208;-70
2022/05/19 05:24:15;;;;;;;3.53;2.50;;;;;;;18.02;80.14;98739.56;5047334;28;20220;-70
2022/05/19 05:26:41;;;;;;;4.28;2.90;;;;;;;18.12;78.87;98737.31;5047258;28;20024;-70
2022/05/19 05:29:07;;;;;;;3.50;2.28;;;;;;;18.26;79.21;98735.69;5047250;28;20025;-70
2022/05/19 05:31:32;;;;;;;4.97;2.65;;;;;;;18.49;77.79;98743.50;5047088;28;20313;-70
2022/05/19 05:33:57;;;;;;;5.18;2.53;;;;;;;18.60;78.42;98734.94;5047183;28;20032;-70
2022/05/19 05:36:23;;;;;;;4.32;2.38;;;;;;;19.04;76.97;98736.22;5047051;28;20029;-70
2022/05/19 05:38:48;;;;;;;4.15;2.97;;;;;;;19.42;77.07;98748.47;5047033;28;20028;-70
2022/05/19 05:41:14;;;;;;;3.13;2.60;;;;;;;19.57;76.70;98747.66;5046998;28;20246;-70
2022/05/19 05:43:40;;;;;;;3.72;2.60;;;;;;;19.73;75.21;98745.88;5046940;28;20018;-70
2022/05/19 05:46:14;;;;;;;5.38;2.97;;;;;;;20.11;74.76;98752.66;5046860;28;20067;-70
2022/05/19 05:48:41;;;;;;;5.90;2.90;;;;;;;20.28;74.23;98763.28;5046703;28;20038;-70
2022/05/19 05:51:09;;;;;;;5.78;2.95;;;;;;;20.38;73.10;98759.16;5046781;28;20025;-70
2022/05/19 05:53:36;;;;;;;4.07;2.22;;;;;;;20.79;73.39;98759.47;5046828;28;20029;-70
2022/05/19 05:56:03;;;;;;;5.43;2.72;;;;;;;20.88;72.66;98765.13;5046296;28;20025;-70
2022/05/19 05:58:29;;;;;;;3.85;2.65;;;;;;;21.18;71.93;98768.72;5046720;28;20340;-70
2022/05/19 06:00:54;;;;;;;3.10;2.30;;;;;;;21.62;72.48;98767.81;5046606;28;20024;-70
2022/05/19 06:03:20;;;;;;;4.35;2.60;;;;;;;22.19;71.03;98761.53;5046556;28;20036;-70
2022/05/19 06:05:45;;;;;;;8.88;2.95;;;;;;;22.76;70.79;98766.69;5046576;28;20021;-70
2022/05/19 06:08:11;;;;;;;3.15;2.55;;;;;;;23.02;69.11;98767.63;5046531;28;20021;-70
2022/05/19 06:10:36;;;;;;;4.72;2.45;;;;;;;22.95;69.52;98767.19;5046752;28;20293;-70
2022/05/19 06:13:02;;;;;;;3.75;2.90;;;;;;;23.12;69.78;98769.59;5046375;28;20021;-70
2022/05/19 06:15:28;;;;;;;4.25;2.72;;;;;;;23.44;67.13;98764.72;5046478;28;20029;-70
2022/05/19 06:17:53;;;;;;;3.33;2.28;;;;;;;23.82;66.57;98770.13;5046308;28;20025;-70
2022/05/19 06:20:19;;;;;;;4.63;2.40;;;;;;;24.09;67.15;98760.97;5046271;28;20029;-70
2022/05/19 06:22:45;;;;;;;3.55;2.40;;;;;;;24.39;67.13;98769.50;5046232;28;20089;-70
2022/05/19 06:25:16;;;;;;;3.88;2.40;;;;;;;24.63;64.51;98774.94;5046184;28;20025;-70
2022/05/19 06:27:42;;;;;;;3.42;2.33;;;;;;;25.08;64.63;98776.91;5046129;28;20021;-70
2022/05/19 06:30:08;;;;;;;4.20;2.22;;;;;;;25.26;63.61;98778.22;5046050;28;20025;-70
2022/05/19 06:32:35;;;;;;;2.97;2.10;;;;;;;25.68;59.02;98782.16;5046014;28;20124;-70
2022/05/19 06:35:00;;;;;;;2.92;2.13;;;;;;;26.16;60.62;98778.34;5046085;28;20333;-70
2022/05/19 06:37:26;;;;;;;4.65;2.95;;;;;;;26.63;55.78;98783.44;5046036;28;20025;-70
2022/05/19 06:39:51;;;;;;;3.63;2.40;;;;;;;26.97;53.61;98788.66;5045942;28;20032;-70
2022/05/19 06:42:17;;;;;;;4.60;2.38;;;;;;;27.22;52.94;98798.25;5045862;28;20089;-70
2022/05/19 06:44:43;;;;;;;3.00;2.30;;;;;;;27.56;49.73;98796.28;5045786;28;20025;-70
2022/05/19 06:47:13;;;;;;;3.13;1.98;;;;;;;27.51;53.24;98785.88;5045794;28;20021;-70
2022/05/19 06:49:47;;;;;;;2.65;2.20;;;;;;;27.41;52.53;98795.75;5045669;28;20044;-70
2022/05/19 06:52:15;;;;;;;2.38;1.80;;;;;;;27.33;52.25;98792.00;5045672;28;20025;-70
2022/05/19 06:54:48;;;;;;;3.10;2.17;;;;;;;27.46;54.95;98787.25;5045662;28;20087;-70
2022/05/19 06:57:15;;;;;;;3.05;2.17;;;;;;;27.10;52.74;98783.94;5045624;28;20036;-70
2022/05/19 06:59:41;;;;;;;3.75;2.05;;;;;;;27.44;54.81;98798.19;5045487;28;20025;-70
2022/05/19 07:02:08;;;;;;;3.65;2.28;;;;;;;27.58;53.10;98800.56;5045528;28;20025;-70
2022/05/19 07:04:33;;;;;;;2.40;2.03;;;;;;;27.48;51.50;98798.78;5045498;28;20032;-70
2022/05/19 07:06:59;;;;;;;4.32;2.10;;;;;;;27.68;53.75;98803.38;5044539;28;20025;-70
2022/05/19 07:09:25;;;;;;;3.47;2.28;;;;;;;28.28;52.29;98801.59;5045333;28;20017;-70
2022/05/19 07:11:50;;;;;;;3.63;2.17;;;;;;;28.52;51.42;98804.88;5045221;28;20194;-70
2022/05/19 07:14:16;;;;;;;3.65;2.05;;;;;;;28.88;51.15;98812.38;5045288;28;20029;-70
2022/05/19 07:16:44;;;;;;;3.08;1.90;;;;;;;28.97;50.82;98811.56;5045209;28;20030;-70
2022/05/19 07:21:55;;;;;;;3.22;2.25;;;;;;;28.69;48.31;98812.34;5045089;28;20024;-70
2022/05/19 07:24:22;;;;;;;3.38;2.25;;;;;;;28.74;49.68;98810.09;5045073;28;20063;-70
2022/05/19 07:26:50;;;;;;;3.47;2.30;;;;;;;29.36;48.87;98814.34;5045019;28;20021;-70
2022/05/19 07:29:17;;;;;;;6.68;2.45;;;;;;;29.77;48.26;98816.78;5044979;28;20033;-70
2022/05/19 07:31:42;;;;;;;6.72;2.63;;;;;;;30.03;48.43;98812.44;5044819;28;20032;-70
2022/05/19 07:34:10;;;;;;;7.40;2.15;;;;;;;30.16;46.72;98807.53;5045119;28;20221;-70
2022/05/19 07:36:36;;;;;;;7.00;2.50;;;;;;;29.88;48.42;98805.75;5044766;28;20021;-70
2022/05/19 07:39:03;;;;;;;3.85;2.22;;;;;;;29.95;47.78;98809.59;5044790;28;20025;-70
2022/05/19 07:41:30;;;;;;;3.38;2.13;;;;;;;30.06;49.51;98806.72;5044800;28;20035;-70
2022/05/19 07:43:57;;;;;;;4.88;3.50;;;;;;;29.82;48.51;98809.03;5044687;28;20025;-70
2022/05/19 07:46:27;;;;;;;4.80;2.40;;;;;;;29.18;49.67;98804.22;5044900;28;20048;-70
2022/05/19 07:48:54;;;;;;;3.33;2.40;;;;;;;28.93;47.51;98799.28;5044420;28;20100;-70
2022/05/19 07:51:25;;;;;;;7.85;2.88;;;;;;;29.13;49.65;98801.06;5044534;28;20029;-70
2022/05/19 07:53:51;;;;;;;3.35;2.45;;;;;;;29.48;48.43;98802.34;5044581;28;20047;-70
2022/05/19 07:56:18;;;;;;;3.58;1.95;;;;;;;29.72;47.62;98794.63;5044422;28;20049;-70
2022/05/19 07:58:47;;;;;;;6.40;2.72;;;;;;;30.30;47.13;98798.94;5044470;28;20115;-70
2022/05/19 08:01:14;;;;;;;3.92;2.30;;;;;;;30.39;49.86;98792.63;5044409;28;20033;-70
2022/05/19 08:03:40;;;;;;;7.07;2.38;;;;;;;30.62;46.64;98785.78;5044272;28;20040;-70
2022/05/19 08:06:07;;;;;;;4.32;2.20;;;;;;;30.91;45.27;98794.69;5044350;28;20025;-70
2022/05/19 08:08:34;;;;;;;4.57;2.40;;;;;;;30.81;45.31;98800.16;5044528;28;20021;-70
2022/05/19 08:11:00;;;;;;;6.22;2.60;;;;;;;31.10;44.64;98791.84;5044412;28;20024;-70
2022/05/19 08:16:10;;;;;;;3.20;2.20;;;;;;;31.71;45.13;98802.78;5044207;28;20033;-70
2022/05/19 08:18:35;;;;;;;3.50;2.33;;;;;;;31.67;42.49;98802.28;5044045;28;20025;-70
2022/05/19 08:21:04;;;;;;;3.58;2.17;;;;;;;31.82;46.27;98787.09;5044178;28;20336;-70
2022/05/19 08:23:34;;;;;;;4.82;2.22;;;;;;;32.22;44.26;98794.69;5044362;28;20124;-70
2022/05/19 08:26:01;;;;;;;3.70;2.33;;;;;;;32.46;44.02;98803.03;5042892;28;20352;-70
2022/05/19 08:28:29;;;;;;;2.28;1.75;;;;;;;32.94;43.79;98804.09;5044004;28;20029;-70
2022/05/19 08:31:01;;;;;;;3.60;2.22;;;;;;;32.52;42.30;98800.50;5043999;28;20025;-70
2022/05/19 08:33:27;;;;;;;4.95;2.00;;;;;;;32.64;42.55;98801.94;5044330;28;20052;-70
2022/05/19 08:35:53;;;;;;;3.70;2.05;;;;;;;32.98;42.34;98800.06;5043915;28;20026;-70
2022/05/19 08:38:19;;;;;;;4.15;2.20;;;;;;;32.90;41.65;98797.28;5043875;28;20021;-70
2022/05/19 08:40:53;;;;;;;6.30;2.13;;;;;;;33.22;42.09;98804.72;5043907;28;20032;-70
2022/05/19 08:43:23;;;;;;;4.63;2.38;;;;;;;33.15;42.51;98800.94;5043879;28;20048;-70
2022/05/19 08:45:53;;;;;;;3.05;1.98;;;;;;;33.67;43.17;98807.00;5043881;28;20063;-70
2022/05/19 08:48:25;;;;;;;3.00;2.00;;;;;;;33.44;41.24;98812.28;5043675;28;20060;-70
2022/05/19 08:51:00;;;;;;;4.05;2.28;;;;;;;32.94;41.08;98798.66;5044016;28;20025;-70
2022/05/19 08:53:35;;;;;;;4.53;2.30;;;;;;;32.96;43.65;98801.22;5043785;28;20033;-70
2022/05/19 08:56:27;;;;;;;5.55;2.05;;;;;;;33.20;42.99;98797.69;5043853;28;20021;-70
2022/05/19 08:59:41;;;;;;;4.15;2.10;;;;;;;33.30;41.21;98798.38;5043752;28;20059;-70
2022/05/19 09:02:13;;;;;;;6.93;2.53;;;;;;;32.95;42.95;98789.47;5043278;28;20064;-70
2022/05/19 09:05:07;;;;;;;4.45;2.30;;;;;;;33.72;42.16;98791.81;5043924;28;20087;-70
2022/05/19 09:07:57;;;;;;;4.55;2.20;;;;;;;34.03;40.91;98781.91;5043718;28;20025;-70
2022/05/19 09:10:35;;;;;;;6.22;2.20;;;;;;;33.79;40.24;98783.78;5043899;28;20091;-70
2022/05/19 09:13:25;;;;;;;3.50;2.08;;;;;;;33.34;42.40;98776.06;5043579;28;20021;-70
2022/05/19 09:15:52;;;;;;;6.47;2.40;;;;;;;32.33;43.83;98781.66;5043902;28;20072;-70
2022/05/19 09:18:25;;;;;;;6.50;2.13;;;;;;;31.87;43.69;98765.69;5043512;28;20021;-70
2022/05/19 09:20:54;;;;;;;4.88;2.33;;;;;;;31.33;46.38;98774.06;5043544;28;20025;-70
2022/05/19 09:23:21;;;;;;;5.82;2.25;;;;;;;31.03;46.78;98766.25;5043537;28;20013;-70
2022/05/19 09:25:57;;;;;;;5.63;2.10;;;;;;;32.14;45.45;98776.41;5043458;28;20053;-70
2022/05/19 09:28:23;;;;;;;5.03;2.20;;;;;;;32.62;42.83;98781.31;5043450;28;20025;-70
2022/05/19 09:30:53;;;;;;;4.15;2.13;;;;;;;32.64;42.18;98769.22;5045792;28;20028;-70
2022/05/19 09:33:44;;;;;;;4.35;2.15;;;;;;;32.07;44.36;98775.34;5047035;28;20088;-70
2022/05/19 09:36:13;;;;;;;3.42;1.90;;;;;;;32.94;41.77;98782.28;5047379;28;20371;-70
2022/05/19 09:38:48;;;;;;;3.70;1.90;;;;;;;31.90;45.41;98779.00;5047020;28;20017;-70
2022/05/19 09:41:28;;;;;;;4.88;2.45;;;;;;;30.61;44.81;98770.50;5047065;28;20034;-70
2022/05/19 09:43:56;;;;;;;4.28;2.33;;;;;;;30.07;45.75;98764.97;5047004;28;20321;-70
2022/05/19 09:46:22;;;;;;;2.50;2.00;;;;;;;30.89;45.13;98781.25;5047167;28;20022;-70
2022/05/19 09:49:01;;;;;;;4.80;2.20;;;;;;;31.08;43.33;98781.09;5046770;28;20113;-70
2022/05/19 09:51:42;;;;;;;3.92;2.13;;;;;;;30.45;45.70;98783.88;5046791;28;20225;-70
2022/05/19 09:54:12;;;;;;;3.50;2.00;;;;;;;30.93;43.58;98771.75;5046744;28;20021;-70
2022/05/19 09:56:50;;;;;;;4.50;2.13;;;;;;;31.53;44.96;98786.47;5046750;28;20025;-70
2022/05/19 09:59:19;;;;;;;2.90;1.77;;;;;;;32.46;44.48;98787.53;5046709;28;20025;-70
2022/05/19 10:01:48;;;;;;;4.30;2.15;;;;;;;32.90;42.80;98791.81;5046523;28;20221;-70
2022/05/19 10:04:29;;;;;;;3.28;1.85;;;;;;;33.04;43.51;98788.47;5046638;28;20028;-70
2022/05/19 10:07:07;;;;;;;3.80;1.77;;;;;;;33.05;43.89;98784.72;5045449;28;20327;-70
2022/05/19 10:09:41;;;;;;;4.63;2.58;;;;;;;32.99;42.43;98785.38;5046775;28;20332;-70
2022/05/19 10:12:10;;;;;;;4.45;1.98;;;;;;;32.69;43.34;98788.66;5046401;28;20092;-70
2022/05/19 10:14:36;;;;;;;3.83;2.10;;;;;;;32.65;42.25;98773.63;5046427;28;20029;-70
2022/05/19 10:17:01;;;;;;;3.70;2.22;;;;;;;32.83;42.46;98779.84;5046384;28;20049;-70
2022/05/19 10:19:54;;;;;;;6.28;2.58;;;;;;;32.54;44.04;98776.66;5046398;28;20045;-70
2022/05/19 10:23:01;;;;;;;3.65;2.25;;;;;;;32.69;44.68;98780.50;5046263;28;20029;-70
2022/05/19 10:25:48;;;;;;;4.30;2.10;;;;;;;32.45;41.41;98769.47;5045686;28;20259;-70
2022/05/19 10:31:39;;;;;;;3.95;2.17;;;;;;;31.77;45.17;98764.91;5046038;28;20097;-70
2022/05/19 10:34:20;;;;;;;3.75;2.10;;;;;;;31.40;45.06;98763.41;5046116;28;20026;-70
2022/05/19 10:37:23;;;;;;;5.63;2.75;;;;;;;31.09;47.46;98762.91;5046041;28;20025;-70
2022/05/19 10:40:18;;;;;;;6.93;1.85;;;;;;;31.11;44.17;98763.63;5046187;28;20017;-70
2022/05/19 10:43:02;;;;;;;6.38;2.35;;;;;;;31.93;47.29;98761.47;5044686;28;20020;-70
2022/05/19 10:45:33;;;;;;;6.13;2.03;;;;;;;31.93;45.87;98759.63;5046118;28;20027;-70
2022/05/19 10:48:20;;;;;;;3.10;2.17;;;;;;;32.15;44.74;98755.50;5045699;28;20029;-70
2022/05/19 10:51:05;;;;;;;3.10;2.25;;;;;;;31.61;46.23;98767.53;5045720;28;20032;-70
2022/05/19 10:53:42;;;;;;;4.82;2.58;;;;;;;31.20;45.41;98758.09;5045734;28;20124;-70
2022/05/19 10:56:23;;;;;;;7.60;2.78;;;;;;;31.27;42.62;98760.19;5045903;28;20025;-70
2022/05/19 10:59:09;;;;;;;5.00;2.50;;;;;;;30.98;43.89;98747.66;5045547;28;20025;-70
2022/05/19 11:01:57;;;;;;;3.92;2.33;;;;;;;31.37;45.26;98753.69;5045441;28;20021;-70
2022/05/19 11:04:47;;;;;;;6.07;2.83;;;;;;;31.18;43.90;98756.53;5045463;28;20225;-70
2022/05/19 11:07:15;;;;;;;5.03;2.80;;;;;;;30.26;44.38;98735.94;5045399;28;20060;-70
2022/05/19 11:10:11;;;;;;;7.55;2.50;;;;;;;30.35;46.19;98742.31;5045397;28;20032;-70
2022/05/19 11:12:42;;;;;;;3.65;2.38;;;;;;;30.45;44.45;98740.41;5045261;28;20045;-70
2022/05/19 11:15:16;;;;;;;8.82;2.80;;;;;;;30.53;47.33;98745.94;5045290;28;20092;-70
2022/05/19 11:18:15;;;;;;;5.95;2.30;;;;;;;30.86;48.97;98753.50;5045544;28;20025;-70
2022/05/19 11:21:18;;;;;;;6.60;2.55;;;;;;;30.68;45.20;98738.97;5045461;28;20246;-70
2022/05/19 11:23:51;;;;;;;8.27;2.63;;;;;;;30.63;48.81;98742.16;5045151;28;20071;-70
2022/05/19 11:26:27;;;;;;;4.70;2.40;;;;;;;30.59;46.25;98740.75;5045035;28;20071;-70
2022/05/19 11:29:14;;;;;;;4.57;2.45;;;;;;;30.48;47.89;98737.38;5045286;28;20022;-70
2022/05/19 11:31:49;;;;;;;6.75;2.63;;;;;;;30.74;45.62;98738.41;5044836;28;20092;-70
2022/05/19 11:34:25;;;;;;;4.80;2.72;;;;;;;30.18;47.12;98729.53;5044898;28;20024;-70
2022/05/19 11:36:58;;;;;;;5.85;2.60;;;;;;;29.98;46.04;98733.28;5044870;28;20371;-70
2022/05/19 11:39:30;;;;;;;5.18;2.65;;;;;;;29.77;46.89;98729.94;5044816;28;20041;-70
2022/05/19 11:42:05;;;;;;;4.70;2.33;;;;;;;29.75;49.10;98718.38;5044769;28;20017;-70
2022/05/19 11:44:36;;;;;;;6.55;3.08;;;;;;;29.76;48.52;98722.78;5044739;28;20017;-70
2022/05/19 11:47:15;;;;;;;;;;;;;;;29.69;49.86;98732.53;5045345;28;20017;-70
2022/05/19 11:55:45;;;;;;;6.55;2.78;;;;;;;29.64;48.94;98729.41;5044576;28;20076;-70
2022/05/19 11:58:24;;;;;;;8.23;2.83;;;;;;;29.75;51.13;98723.78;5044503;28;20022;-70
2022/05/19 12:00:50;;;;;;;8.32;2.80;;;;;;;29.76;50.54;98715.50;5044440;28;20032;-70
2022/05/19 12:03:33;;;;;;;6.03;2.83;;;;;;;29.83;50.68;98718.50;5044366;28;20208;-70